Terminal Aerodrome Forecast
Issued by NWS

Home | Current Version | Previous Version | Text Only | Print | Product List | Glossary On
Versions: 1 2 3 4 5 6 7 8 9 10 11 12 13 14 15 16 17 18
000
FTUS45 KFGZ 261700
TAFSEZ
TAF
KSEZ 261729Z 2618/2718 VRB05KT P6SM VCSH SCT008 BKN030
      TEMPO 2618/2620 32010G20KT -SHRA BKN008
     FM262100 33010G18KT P6SM SCT030 BKN050
     FM270200 01008KT P6SM SCT060=

USA.gov is the U.S. government's official web portal to all federal, state and local government web resources and services.